Time;durP1;ratioP1;P1;durP2;ratioP2;P2;SDS_P1;SDS_P2;PMS_P1;PMS_P2;Temp;Humidity;BMP_temperature;BMP_pressure;BME280_temperature;BME280_humidity;BME280_pressure;Samples;Min_cycle;Max_cycle;Signal;HPM_P1;HPM_P2
2023/10/26 00:01:15;;;;;;;;;;;;;;;;;;5052496;28;20019;-70
2023/10/26 00:03:42;;;;;;;;;;;;;;;;;;5052913;28;20031;-71
2023/10/26 00:06:09;;;;;;;;;;;;;;;;;;5050749;28;20418;-71
2023/10/26 00:08:36;;;;;;;;;;;;;;;;;;5051653;28;20348;-70
2023/10/26 00:11:03;;;;;;;;;;;;;;;;;;5052711;28;19978;-71
2023/10/26 00:13:30;;;;;;;;;;;;;;;;;;5072612;28;19975;-70
2023/10/26 00:15:57;;;;;;;;;;;;;;;;;;5064706;28;19932;-71
2023/10/26 00:18:24;;;;;;;;;;;;;;;;;;5052047;28;19932;-71
2023/10/26 00:20:51;;;;;;;;;;;;;;;;;;5051813;28;19975;-71
2023/10/26 00:23:18;;;;;;;;;;;;;;;;;;5052477;28;19925;-71
2023/10/26 00:25:45;;;;;;;;;;;;;;;;;;5051721;28;20007;-71
2023/10/26 00:28:12;;;;;;;;;;;;;;;;;;5046623;28;20011;-71
2023/10/26 00:30:39;;;;;;;;;;;;;;;;;;5052121;28;20414;-71
2023/10/26 00:33:06;;;;;;;;;;;;;;;;;;5052230;28;19924;-69
2023/10/26 00:35:33;;;;;;;;;;;;;;;;;;5051440;28;19982;-69
2023/10/26 00:38:00;;;;;;;;;;;;;;;;;;5052591;28;19925;-69
2023/10/26 00:40:27;;;;;;;;;;;;;;;;;;5042027;28;19975;-70
2023/10/26 00:42:54;;;;;;;;;;;;;;;;;;5032363;28;19925;-70
2023/10/26 00:45:21;;;;;;;;;;;;;;;;;;5034005;28;20023;-70
2023/10/26 00:47:49;;;;;;;;;;;;;;;;;;5052149;28;20407;-70
2023/10/26 00:50:16;;;;;;;;;;;;;;;;;;5051500;28;19925;-70
2023/10/26 00:52:43;;;;;;;;;;;;;;;;;;5052214;28;20035;-70
2023/10/26 00:55:10;;;;;;;;;;;;;;;;;;5052103;28;19972;-70
2023/10/26 00:57:37;;;;;;;;;;;;;;;;;;5050833;28;20007;-69
2023/10/26 01:00:07;;;;;;;;;;;;;;;;;;5051422;28;19967;-70
2023/10/26 01:02:34;;;;;;;;;;;;;;;;;;5052636;28;19931;-70
2023/10/26 01:05:01;;;;;;;;;;;;;;;;;;5052014;28;20445;-70
2023/10/26 01:07:28;;;;;;;;;;;;;;;;;;5052351;28;19971;-69
2023/10/26 01:09:55;;;;;;;;;;;;;;;;;;5051383;28;20024;-70
2023/10/26 01:12:22;;;;;;;;;;;;;;;;;;5052471;28;20019;-70
2023/10/26 01:14:49;;;;;;;;;;;;;;;;;;5050292;28;20402;-71
2023/10/26 01:17:16;;;;;;;;;;;;;;;;;;5051776;28;19932;-71
2023/10/26 01:19:43;;;;;;;;;;;;;;;;;;5050197;28;20012;-71
2023/10/26 01:22:10;;;;;;;;;;;;;;;;;;5062739;28;19924;-71
2023/10/26 01:24:37;;;;;;;;;;;;;;;;;;5071962;28;20028;-71
2023/10/26 01:27:04;;;;;;;;;;;;;;;;;;5054441;28;19929;-70
2023/10/26 01:29:31;;;;;;;;;;;;;;;;;;5050992;28;19948;-70
2023/10/26 01:31:58;;;;;;;;;;;;;;;;;;5048069;28;20020;-71
2023/10/26 01:34:25;;;;;;;;;;;;;;;;;;5051020;28;19925;-71
2023/10/26 01:36:52;;;;;;;;;;;;;;;;;;5051214;28;20380;-70
2023/10/26 01:39:19;;;;;;;;;;;;;;;;;;5049789;28;19975;-69
2023/10/26 01:41:47;;;;;;;;;;;;;;;;;;5051800;28;19924;-70
2023/10/26 01:44:14;;;;;;;;;;;;;;;;;;5052590;28;19979;-70
2023/10/26 01:46:41;;;;;;;;;;;;;;;;;;5055787;28;19925;-70
2023/10/26 01:49:08;;;;;;;;;;;;;;;;;;5054274;28;19925;-69
2023/10/26 01:51:35;;;;;;;;;;;;;;;;;;5054455;28;20023;-69
2023/10/26 01:54:02;;;;;;;;;;;;;;;;;;5055441;28;20340;-70
2023/10/26 01:56:29;;;;;;;;;;;;;;;;;;5055166;28;20620;-69
2023/10/26 01:58:56;;;;;;;;;;;;;;;;;;5054236;28;20395;-69
2023/10/26 02:01:24;;;;;;;;;;;;;;;;;;5055260;28;19932;-70
2023/10/26 02:03:51;;;;;;;;;;;;;;;;;;5055024;28;19960;-70
2023/10/26 02:06:18;;;;;;;;;;;;;;;;;;5053756;28;19948;-70
2023/10/26 02:08:45;;;;;;;;;;;;;;;;;;5054170;28;20008;-69
2023/10/26 02:11:11;;;;;;;;;;;;;;;;;;5053549;28;19967;-70
2023/10/26 02:13:40;;;;;;;;;;;;;;;;;;5054787;28;20019;-70
2023/10/26 02:16:07;;;;;;;;;;;;;;;;;;5035267;28;19931;-70
2023/10/26 02:18:33;;;;;;;;;;;;;;;;;;5047739;28;19986;-70
2023/10/26 02:21:01;;;;;;;;;;;;;;;;;;5052996;28;19974;-70
2023/10/26 02:23:28;;;;;;;;;;;;;;;;;;5053583;28;19960;-70
2023/10/26 02:25:56;;;;;;;;;;;;;;;;;;5053985;28;19929;-69
2023/10/26 02:28:23;;;;;;;;;;;;;;;;;;5053898;28;19925;-69
2023/10/26 02:30:50;;;;;;;;;;;;;;;;;;5053052;28;19964;-69
2023/10/26 02:33:17;;;;;;;;;;;;;;;;;;5053952;28;20462;-69
2023/10/26 02:35:44;;;;;;;;;;;;;;;;;;5054027;28;19964;-69
2023/10/26 02:38:11;;;;;;;;;;;;;;;;;;5049894;28;19971;-69
2023/10/26 02:40:38;;;;;;;;;;;;;;;;;;5052215;28;19925;-69
2023/10/26 02:43:05;;;;;;;;;;;;;;;;;;5053382;28;19925;-71
2023/10/26 02:45:32;;;;;;;;;;;;;;;;;;5053560;28;19957;-70
2023/10/26 02:47:58;;;;;;;;;;;;;;;;;;5054167;28;19925;-70
2023/10/26 02:50:25;;;;;;;;;;;;;;;;;;5046691;28;20453;-71
2023/10/26 02:52:53;;;;;;;;;;;;;;;;;;5040275;28;20019;-71
2023/10/26 02:55:20;;;;;;;;;;;;;;;;;;5052140;28;19931;-71
2023/10/26 02:57:48;;;;;;;;;;;;;;;;;;5050561;28;19924;-71
2023/10/26 03:00:16;;;;;;;;;;;;;;;;;;5051544;28;20517;-71
2023/10/26 03:02:43;;;;;;;;;;;;;;;;;;5052887;28;19971;-71
2023/10/26 03:05:10;;;;;;;;;;;;;;;;;;5052201;28;20290;-72
2023/10/26 03:07:37;;;;;;;;;;;;;;;;;;5052920;28;19972;-72
2023/10/26 03:10:05;;;;;;;;;;;;;;;;;;5052589;28;20028;-71
2023/10/26 03:12:31;;;;;;;;;;;;;;;;;;5052663;28;20376;-71
2023/10/26 03:14:59;;;;;;;;;;;;;;;;;;5053705;28;19964;-70
2023/10/26 03:17:26;;;;;;;;;;;;;;;;;;5053443;28;19977;-71
2023/10/26 03:19:53;;;;;;;;;;;;;;;;;;5051501;28;19924;-71
2023/10/26 03:22:20;;;;;;;;;;;;;;;;;;5053370;28;19925;-71
2023/10/26 03:24:47;;;;;;;;;;;;;;;;;;5053938;28;20027;-69
2023/10/26 03:27:14;;;;;;;;;;;;;;;;;;5054347;28;19928;-71
2023/10/26 03:29:41;;;;;;;;;;;;;;;;;;5052426;28;19925;-70
2023/10/26 03:32:08;;;;;;;;;;;;;;;;;;5053442;28;20011;-71
2023/10/26 03:34:35;;;;;;;;;;;;;;;;;;5049136;28;19983;-71
2023/10/26 03:37:02;;;;;;;;;;;;;;;;;;5053002;28;20419;-71
2023/10/26 03:39:29;;;;;;;;;;;;;;;;;;5052327;28;20393;-71
2023/10/26 03:41:56;;;;;;;;;;;;;;;;;;5053072;28;20470;-71
2023/10/26 03:44:23;;;;;;;;;;;;;;;;;;5052590;28;20375;-70
2023/10/26 03:46:52;;;;;;;;;;;;;;;;;;5048193;28;20028;-69
2023/10/26 03:49:19;;;;;;;;;;;;;;;;;;5053156;28;19932;-70
2023/10/26 03:51:46;;;;;;;;;;;;;;;;;;5052281;28;19925;-69
2023/10/26 03:54:13;;;;;;;;;;;;;;;;;;5052494;28;20012;-70
2023/10/26 03:56:40;;;;;;;;;;;;;;;;;;5052974;28;20011;-70
2023/10/26 03:59:08;;;;;;;;;;;;;;;;;;5051124;28;20300;-70
2023/10/26 04:01:36;;;;;;;;;;;;;;;;;;5051990;28;20019;-70
2023/10/26 04:04:03;;;;;;;;;;;;;;;;;;5051472;28;19924;-70
2023/10/26 04:06:31;;;;;;;;;;;;;;;;;;5050644;28;20029;-71
2023/10/26 04:08:58;;;;;;;;;;;;;;;;;;5051495;28;19939;-70
2023/10/26 04:11:25;;;;;;;;;;;;;;;;;;5052585;28;19964;-70
2023/10/26 04:13:53;;;;;;;;;;;;;;;;;;5051894;28;20577;-70
2023/10/26 04:16:20;;;;;;;;;;;;;;;;;;5061667;28;20322;-70
2023/10/26 04:18:47;;;;;;;;;;;;;;;;;;5050825;28;20377;-70
2023/10/26 04:21:14;;;;;;;;;;;;;;;;;;5051112;28;19970;-71
2023/10/26 04:23:41;;;;;;;;;;;;;;;;;;5053027;28;19979;-70
2023/10/26 04:26:09;;;;;;;;;;;;;;;;;;5052341;28;20007;-70
2023/10/26 04:28:36;;;;;;;;;;;;;;;;;;5051047;28;20019;-70
2023/10/26 04:31:04;;;;;;;;;;;;;;;;;;5051482;28;19925;-71
2023/10/26 04:33:31;;;;;;;;;;;;;;;;;;5056132;28;19924;-71
2023/10/26 04:35:58;;;;;;;;;;;;;;;;;;5050847;28;20482;-70
2023/10/26 04:38:25;;;;;;;;;;;;;;;;;;5050517;28;20361;-72
2023/10/26 04:40:52;;;;;;;;;;;;;;;;;;5052189;28;19959;-70
2023/10/26 04:43:19;;;;;;;;;;;;;;;;;;5052197;28;19929;-70
2023/10/26 04:45:46;;;;;;;;;;;;;;;;;;5052369;28;19925;-71
2023/10/26 04:48:13;;;;;;;;;;;;;;;;;;5050660;28;19932;-71
2023/10/26 04:50:40;;;;;;;;;;;;;;;;;;5051415;28;19971;-71
2023/10/26 04:53:07;;;;;;;;;;;;;;;;;;5051315;28;20341;-71
2023/10/26 04:55:34;;;;;;;;;;;;;;;;;;5042167;28;20004;-71
2023/10/26 04:58:01;;;;;;;;;;;;;;;;;;5050397;28;19925;-71
2023/10/26 05:00:28;;;;;;;;;;;;;;;;;;5048799;28;19925;-72
2023/10/26 05:02:55;;;;;;;;;;;;;;;;;;5052043;28;19964;-71
2023/10/26 05:05:22;;;;;;;;;;;;;;;;;;5049093;28;19941;-71
2023/10/26 05:07:49;;;;;;;;;;;;;;;;;;5048531;28;20002;-72
2023/10/26 05:10:16;;;;;;;;;;;;;;;;;;5049179;28;20011;-71
2023/10/26 05:12:43;;;;;;;;;;;;;;;;;;5046987;28;20012;-71
2023/10/26 05:15:10;;;;;;;;;;;;;;;;;;5051508;28;19959;-71
2023/10/26 05:17:38;;;;;;;;;;;;;;;;;;5046326;28;20422;-70
2023/10/26 05:20:05;;;;;;;;;;;;;;;;;;5048063;28;19924;-71
2023/10/26 05:22:32;;;;;;;;;;;;;;;;;;5052407;28;20017;-72
2023/10/26 05:25:00;;;;;;;;;;;;;;;;;;5053380;28;20376;-70
2023/10/26 05:27:27;;;;;;;;;;;;;;;;;;5063995;28;19931;-71
2023/10/26 05:29:54;;;;;;;;;;;;;;;;;;5053063;28;19950;-71
2023/10/26 05:32:21;;;;;;;;;;;;;;;;;;5054559;28;19946;-69
2023/10/26 05:34:48;;;;;;;;;;;;;;;;;;5054343;28;19929;-72
2023/10/26 05:37:15;;;;;;;;;;;;;;;;;;5051046;28;19974;-71
2023/10/26 05:39:42;;;;;;;;;;;;;;;;;;5052389;28;20326;-72
2023/10/26 05:42:10;;;;;;;;;;;;;;;;;;5052484;28;19972;-71
2023/10/26 05:44:37;;;;;;;;;;;;;;;;;;5051612;28;20445;-70
2023/10/26 05:47:04;;;;;;;;;;;;;;;;;;5045201;28;20577;-72
2023/10/26 05:49:30;;;;;;;;;;;;;;;;;;5053797;28;20436;-71
2023/10/26 05:52:00;;;;;;;;;;;;;;;;;;5054186;28;20379;-71
2023/10/26 05:54:27;;;;;;;;;;;;;;;;;;5044359;28;19931;-72
2023/10/26 05:56:54;;;;;;;;;;;;;;;;;;5052847;28;19925;-70
2023/10/26 05:59:21;;;;;;;;;;;;;;;;;;5049310;28;19933;-71
2023/10/26 06:01:48;;;;;;;;;;;;;;;;;;5054670;28;19964;-72
2023/10/26 06:04:15;;;;;;;;;;;;;;;;;;5046718;28;20065;-72
2023/10/26 06:06:43;;;;;;;;;;;;;;;;;;5053577;28;19925;-72
2023/10/26 06:09:10;;;;;;;;;;;;;;;;;;5054291;28;19928;-71
2023/10/26 06:11:38;;;;;;;;;;;;;;;;;;5061811;28;19925;-72
2023/10/26 06:14:05;;;;;;;;;;;;;;;;;;5054351;28;19929;-72
2023/10/26 06:16:32;;;;;;;;;;;;;;;;;;5052611;28;20358;-72
2023/10/26 06:18:59;;;;;;;;;;;;;;;;;;5053302;28;20344;-72
2023/10/26 06:21:26;;;;;;;;;;;;;;;;;;5053296;28;20002;-71
2023/10/26 06:23:54;;;;;;;;;;;;;;;;;;5052991;28;20398;-69
2023/10/26 06:26:21;;;;;;;;;;;;;;;;;;5052438;28;20413;-69
2023/10/26 06:28:48;;;;;;;;;;;;;;;;;;5052112;28;19933;-68
2023/10/26 06:31:15;;;;;;;;;;;;;;;;;;5048718;28;19947;-71
2023/10/26 06:33:43;;;;;;;;;;;;;;;;;;5051296;28;20003;-72
2023/10/26 06:36:10;;;;;;;;;;;;;;;;;;5051496;28;20012;-70
2023/10/26 06:38:37;;;;;;;;;;;;;;;;;;5053355;28;20039;-70
2023/10/26 06:41:04;;;;;;;;;;;;;;;;;;5052622;28;19932;-70
2023/10/26 06:43:31;;;;;;;;;;;;;;;;;;5053274;28;19925;-70
2023/10/26 06:45:58;;;;;;;;;;;;;;;;;;5052373;28;20023;-70
2023/10/26 06:48:25;;;;;;;;;;;;;;;;;;5052188;28;20043;-70
2023/10/26 06:50:53;;;;;;;;;;;;;;;;;;5044497;28;20389;-70
2023/10/26 06:53:20;;;;;;;;;;;;;;;;;;5051537;28;19925;-71
2023/10/26 06:55:47;;;;;;;;;;;;;;;;;;5052018;28;19939;-63
2023/10/26 06:58:14;;;;;;;;;;;;;;;;;;5053916;28;20003;-68
2023/10/26 07:00:41;;;;;;;;;;;;;;;;;;5052817;28;19924;-70
2023/10/26 07:03:08;;;;;;;;;;;;;;;;;;5049595;22;19925;-69
2023/10/26 07:05:35;;;;;;;;;;;;;;;;;;5016372;28;20112;-69
2023/10/26 07:08:02;;;;;;;;;;;;;;;;;;5013758;28;19925;-70
2023/10/26 07:10:31;;;;;;;;;;;;;;;;;;5012567;28;19929;-69
2023/10/26 07:12:58;;;;;;;;;;;;;;;;;;5011641;28;19933;-70
2023/10/26 07:15:25;;;;;;;;;;;;;;;;;;5013139;28;20471;-70
2023/10/26 07:17:52;;;;;;;;;;;;;;;;;;5013506;28;19933;-70
2023/10/26 07:20:19;;;;;;;;;;;;;;;;;;5011497;28;20021;-70
2023/10/26 07:22:46;;;;;;;;;;;;;;;;;;5008420;28;19937;-70
2023/10/26 07:25:13;;;;;;;;;;;;;;;;;;5017068;28;19925;-70
2023/10/26 07:27:40;;;;;;;;;;;;;;;;;;5022673;28;19968;-69
2023/10/26 07:30:07;;;;;;;;;;;;;;;;;;5003615;28;19980;-67
2023/10/26 07:32:34;;;;;;;;;;;;;;;;;;5009091;28;19968;-67
2023/10/26 07:35:01;;;;;;;;;;;;;;;;;;5003821;28;19926;-68
2023/10/26 07:37:29;;;;;;;;;;;;;;;;;;5010196;28;20444;-67
2023/10/26 07:39:56;;;;;;;;;;;;;;;;;;5007411;28;20019;-68
2023/10/26 07:42:23;;;;;;;;;;;;;;;;;;5011072;28;19934;-67
2023/10/26 07:44:50;;;;;;;;;;;;;;;;;;5006352;28;19932;-68
2023/10/26 07:47:17;;;;;;;;;;;;;;;;;;5006952;28;19964;-68
2023/10/26 07:49:44;;;;;;;;;;;;;;;;;;5007561;28;20376;-68
2023/10/26 07:52:11;;;;;;;;;;;;;;;;;;5010835;28;20303;-68
2023/10/26 07:54:38;;;;;;;;;;;;;;;;;;5003394;28;19979;-68
2023/10/26 07:57:05;;;;;;;;;;;;;;;;;;5006787;28;19971;-68
2023/10/26 07:59:32;;;;;;;;;;;;;;;;;;5008707;28;19933;-68
2023/10/26 08:01:59;;;;;;;;;;;;;;;;;;5006168;28;20031;-68
2023/10/26 08:04:27;;;;;;;;;;;;;;;;;;5007672;28;20372;-68
2023/10/26 08:06:54;;;;;;;;;;;;;;;;;;5010129;28;19925;-68
2023/10/26 08:09:21;;;;;;;;;;;;;;;;;;5006319;28;19936;-68
2023/10/26 08:11:48;;;;;;;;;;;;;;;;;;5000450;28;20465;-68
2023/10/26 08:14:15;;;;;;;;;;;;;;;;;;5005933;28;20436;-68
2023/10/26 08:16:42;;;;;;;;;;;;;;;;;;5007630;28;20315;-68
2023/10/26 08:19:09;;;;;;;;;;;;;;;;;;5005697;28;19992;-68
2023/10/26 08:21:36;;;;;;;;;;;;;;;;;;5003122;28;19984;-68
2023/10/26 08:24:03;;;;;;;;;;;;;;;;;;5004526;28;19940;-68
2023/10/26 08:26:30;;;;;;;;;;;;;;;;;;5001108;28;20028;-68
2023/10/26 08:28:57;;;;;;;;;;;;;;;;;;5003874;28;20406;-68
2023/10/26 08:31:24;;;;;;;;;;;;;;;;;;5007171;28;19930;-69
2023/10/26 08:33:51;;;;;;;;;;;;;;;;;;5007614;28;20372;-68
2023/10/26 08:36:18;;;;;;;;;;;;;;;;;;5008657;28;19971;-68
2023/10/26 08:38:45;;;;;;;;;;;;;;;;;;5010629;28;20297;-68
2023/10/26 08:41:12;;;;;;;;;;;;;;;;;;5009308;28;19937;-68
2023/10/26 08:43:39;;;;;;;;;;;;;;;;;;5010358;28;19926;-68
2023/10/26 08:46:06;;;;;;;;;;;;;;;;;;5007546;28;19926;-67
2023/10/26 08:48:33;;;;;;;;;;;;;;;;;;5012604;28;19925;-67
2023/10/26 08:51:00;;;;;;;;;;;;;;;;;;5006896;28;20108;-68
2023/10/26 08:53:27;;;;;;;;;;;;;;;;;;5006622;28;20020;-68
2023/10/26 08:55:55;;;;;;;;;;;;;;;;;;5007827;28;20372;-68
2023/10/26 08:58:22;;;;;;;;;;;;;;;;;;4997652;28;19933;-68
2023/10/26 09:00:49;;;;;;;;;;;;;;;;;;4999276;28;19926;-70
2023/10/26 09:03:16;;;;;;;;;;;;;;;;;;5006512;28;20563;-69
2023/10/26 09:05:43;;;;;;;;;;;;;;;;;;5008729;28;20393;-71
2023/10/26 09:08:10;;;;;;;;;;;;;;;;;;5004266;28;20333;-70
2023/10/26 09:10:37;;;;;;;;;;;;;;;;;;5005736;28;20021;-69
2023/10/26 09:13:05;;;;;;;;;;;;;;;;;;4992693;28;19932;-70
2023/10/26 09:15:32;;;;;;;;;;;;;;;;;;5000433;28;19925;-69
2023/10/26 09:18:00;;;;;;;;;;;;;;;;;;5008900;28;20025;-71
2023/10/26 09:20:27;;;;;;;;;;;;;;;;;;5022195;28;19925;-69
2023/10/26 09:22:54;;;;;;;;;;;;;;;;;;5009333;28;20008;-70
2023/10/26 09:25:21;;;;;;;;;;;;;;;;;;5011936;28;20016;-70
2023/10/26 09:27:48;;;;;;;;;;;;;;;;;;4999321;28;20016;-69
2023/10/26 09:30:15;;;;;;;;;;;;;;;;;;5008582;28;20216;-70
2023/10/26 09:32:42;;;;;;;;;;;;;;;;;;5010462;28;19972;-70
2023/10/26 09:35:09;;;;;;;;;;;;;;;;;;5010703;28;19976;-70
2023/10/26 09:37:36;;;;;;;;;;;;;;;;;;5011045;28;19972;-71
2023/10/26 09:40:03;;;;;;;;;;;;;;;;;;5010840;28;20028;-70
2023/10/26 09:42:30;;;;;;;;;;;;;;;;;;5011702;28;19925;-70
2023/10/26 09:44:57;;;;;;;;;;;;;;;;;;5008497;28;19936;-70
2023/10/26 09:47:24;;;;;;;;;;;;;;;;;;5010428;28;20020;-70
2023/10/26 09:49:51;;;;;;;;;;;;;;;;;;5010764;28;20065;-70
2023/10/26 09:52:18;;;;;;;;;;;;;;;;;;5003661;28;19929;-70
2023/10/26 09:54:45;;;;;;;;;;;;;;;;;;5008005;28;20004;-70
2023/10/26 09:57:12;;;;;;;;;;;;;;;;;;5004866;28;20019;-70
2023/10/26 09:59:39;;;;;;;;;;;;;;;;;;5004466;28;20019;-70
2023/10/26 10:02:06;;;;;;;;;;;;;;;;;;5004743;28;19932;-70
2023/10/26 10:04:33;;;;;;;;;;;;;;;;;;5007925;28;19926;-70
2023/10/26 10:07:02;;;;;;;;;;;;;;;;;;5003971;28;20447;-70
2023/10/26 10:09:29;;;;;;;;;;;;;;;;;;5006512;28;19952;-70
2023/10/26 10:11:56;;;;;;;;;;;;;;;;;;5010844;28;19935;-70
2023/10/26 10:14:23;;;;;;;;;;;;;;;;;;5008645;28;19925;-70
2023/10/26 10:16:51;;;;;;;;;;;;;;;;;;5004600;28;20024;-70
2023/10/26 10:19:18;;;;;;;;;;;;;;;;;;5009732;28;19926;-70
2023/10/26 10:21:47;;;;;;;;;;;;;;;;;;5002649;28;20491;-70
2023/10/26 10:24:14;;;;;;;;;;;;;;;;;;5007810;28;19972;-71
2023/10/26 10:26:41;;;;;;;;;;;;;;;;;;5000500;28;20020;-71
2023/10/26 10:29:08;;;;;;;;;;;;;;;;;;5011971;28;19981;-72
2023/10/26 10:31:34;;;;;;;;;;;;;;;;;;5012842;28;19929;-72
2023/10/26 10:34:02;;;;;;;;;;;;;;;;;;5012052;28;19933;-72
2023/10/26 10:36:29;;;;;;;;;;;;;;;;;;5010199;28;20288;-72
2023/10/26 10:38:56;;;;;;;;;;;;;;;;;;5013578;28;19939;-71
2023/10/26 10:41:23;;;;;;;;;;;;;;;;;;5010117;28;20483;-73
2023/10/26 10:43:50;;;;;;;;;;;;;;;;;;5010411;28;20012;-72
2023/10/26 10:46:17;;;;;;;;;;;;;;;;;;5008708;28;19988;-71
2023/10/26 10:48:44;;;;;;;;;;;;;;;;;;5003135;28;19972;-71
2023/10/26 10:51:11;;;;;;;;;;;;;;;;;;5006081;28;20079;-71
2023/10/26 10:53:38;;;;;;;;;;;;;;;;;;5013514;28;20012;-72
2023/10/26 10:56:05;;;;;;;;;;;;;;;;;;5007854;28;20406;-72
2023/10/26 10:58:32;;;;;;;;;;;;;;;;;;5003835;28;19929;-71
2023/10/26 11:00:59;;;;;;;;;;;;;;;;;;5011486;28;20028;-72
2023/10/26 11:03:26;;;;;;;;;;;;;;;;;;5010559;28;20032;-72
2023/10/26 11:05:53;;;;;;;;;;;;;;;;;;5003205;28;20470;-73
2023/10/26 11:08:20;;;;;;;;;;;;;;;;;;5010595;28;19926;-73
2023/10/26 11:10:47;;;;;;;;;;;;;;;;;;5008651;28;19933;-73
2023/10/26 11:13:14;;;;;;;;;;;;;;;;;;5009961;28;19945;-73
2023/10/26 11:15:41;;;;;;;;;;;;;;;;;;5003513;28;20384;-72
2023/10/26 11:18:09;;;;;;;;;;;;;;;;;;5005655;28;19969;-73
2023/10/26 11:20:36;;;;;;;;;;;;;;;;;;5006441;28;19933;-71
2023/10/26 11:23:03;;;;;;;;;;;;;;;;;;5004477;28;19952;-71
2023/10/26 11:25:30;;;;;;;;;;;;;;;;;;5004323;28;20016;-72
2023/10/26 11:27:57;;;;;;;;;;;;;;;;;;5013046;28;20034;-72
2023/10/26 11:30:24;;;;;;;;;;;;;;;;;;5003080;28;20013;-71
2023/10/26 11:32:51;;;;;;;;;;;;;;;;;;5002878;28;20008;-72
2023/10/26 11:35:18;;;;;;;;;;;;;;;;;;5003511;28;19925;-72
2023/10/26 11:37:45;;;;;;;;;;;;;;;;;;5003577;28;20020;-71
2023/10/26 11:40:12;;;;;;;;;;;;;;;;;;5005627;28;20009;-71
2023/10/26 11:42:39;;;;;;;;;;;;;;;;;;5006401;28;20008;-72
2023/10/26 11:45:06;;;;;;;;;;;;;;;;;;5005819;28;19930;-72
2023/10/26 11:47:33;;;;;;;;;;;;;;;;;;5004825;28;20021;-72
2023/10/26 11:50:00;;;;;;;;;;;;;;;;;;5003123;28;19925;-71
2023/10/26 11:52:27;;;;;;;;;;;;;;;;;;4997955;28;19925;-72
2023/10/26 11:54:56;;;;;;;;;;;;;;;;;;5004077;28;19965;-72
2023/10/26 11:57:23;;;;;;;;;;;;;;;;;;5009993;28;19925;-74
2023/10/26 11:59:50;;;;;;;;;;;;;;;;;;5004870;28;19933;-73
2023/10/26 12:02:17;;;;;;;;;;;;;;;;;;5003584;28;20406;-72
2023/10/26 12:04:44;;;;;;;;;;;;;;;;;;5005491;28;20004;-73
2023/10/26 12:07:11;;;;;;;;;;;;;;;;;;5000936;28;19961;-72
2023/10/26 12:09:38;;;;;;;;;;;;;;;;;;5003505;28;19987;-72
2023/10/26 12:12:05;;;;;;;;;;;;;;;;;;5003349;28;20016;-72
2023/10/26 12:14:32;;;;;;;;;;;;;;;;;;5006559;28;20093;-73
2023/10/26 12:16:59;;;;;;;;;;;;;;;;;;5004917;28;20348;-72
2023/10/26 12:19:26;;;;;;;;;;;;;;;;;;5003931;28;19965;-72
2023/10/26 12:21:53;;;;;;;;;;;;;;;;;;5005358;28;19984;-72
2023/10/26 12:24:20;;;;;;;;;;;;;;;;;;5010554;28;19927;-72
2023/10/26 12:26:47;;;;;;;;;;;;;;;;;;5007154;28;19929;-72
2023/10/26 12:29:14;;;;;;;;;;;;;;;;;;5007924;28;19976;-72
2023/10/26 12:31:41;;;;;;;;;;;;;;;;;;5007454;28;20017;-72
2023/10/26 12:34:08;;;;;;;;;;;;;;;;;;5001423;28;20016;-72
2023/10/26 12:36:35;;;;;;;;;;;;;;;;;;5009234;28;20107;-72
2023/10/26 12:39:03;;;;;;;;;;;;;;;;;;5007967;28;19975;-73
2023/10/26 12:41:30;;;;;;;;;;;;;;;;;;5009579;28;19930;-72
2023/10/26 12:43:57;;;;;;;;;;;;;;;;;;5001041;28;20459;-74
2023/10/26 12:46:24;;;;;;;;;;;;;;;;;;5010038;28;19926;-72
2023/10/26 12:48:51;;;;;;;;;;;;;;;;;;5008745;28;20393;-72
2023/10/26 12:51:18;;;;;;;;;;;;;;;;;;5011050;28;20372;-73
2023/10/26 12:53:45;;;;;;;;;;;;;;;;;;5010159;28;20012;-73
2023/10/26 12:56:12;;;;;;;;;;;;;;;;;;5004949;28;19925;-74
2023/10/26 12:58:39;;;;;;;;;;;;;;;;;;5005775;28;19968;-72
2023/10/26 13:01:06;;;;;;;;;;;;;;;;;;5005639;28;19934;-72
2023/10/26 13:03:33;;;;;;;;;;;;;;;;;;5004561;28;20361;-73
2023/10/26 13:06:00;;;;;;;;;;;;;;;;;;5006189;28;20016;-74
2023/10/26 13:08:27;;;;;;;;;;;;;;;;;;4999005;28;20024;-73
2023/10/26 13:10:54;;;;;;;;;;;;;;;;;;5008889;28;20261;-71
2023/10/26 13:13:21;;;;;;;;;;;;;;;;;;5005488;28;19969;-71
2023/10/26 13:15:48;;;;;;;;;;;;;;;;;;5004520;28;20447;-71
2023/10/26 13:18:15;;;;;;;;;;;;;;;;;;5000847;28;20364;-69
2023/10/26 13:20:42;;;;;;;;;;;;;;;;;;5009179;28;19968;-70
2023/10/26 13:23:09;;;;;;;;;;;;;;;;;;5008231;28;19976;-70
2023/10/26 13:25:36;;;;;;;;;;;;;;;;;;5004558;28;20376;-70
2023/10/26 13:28:03;;;;;;;;;;;;;;;;;;5004397;28;20439;-73
2023/10/26 13:30:30;;;;;;;;;;;;;;;;;;5009587;28;19929;-74
2023/10/26 13:32:57;;;;;;;;;;;;;;;;;;5008640;28;19987;-67
2023/10/26 13:35:29;;;;;;;;;;;;;;;;;;5002603;28;20008;-71
2023/10/26 13:37:56;;;;;;;;;;;;;;;;;;5005895;28;19933;-73
2023/10/26 13:40:23;;;;;;;;;;;;;;;;;;5011550;28;19925;-72
2023/10/26 13:42:52;;;;;;;;;;;;;;;;;;5004521;28;20024;-72
2023/10/26 13:45:19;;;;;;;;;;;;;;;;;;5005652;28;19988;-72
2023/10/26 13:47:46;;;;;;;;;;;;;;;;;;4999796;28;20399;-71
2023/10/26 13:50:14;;;;;;;;;;;;;;;;;;5010611;28;20416;-72
2023/10/26 13:52:41;;;;;;;;;;;;;;;;;;5009193;28;19934;-73
2023/10/26 13:55:11;;;;;;;;;;;;;;;;;;5010530;28;20020;-72
2023/10/26 13:57:38;;;;;;;;;;;;;;;;;;5004825;28;19979;-73
2023/10/26 14:00:07;;;;;;;;;;;;;;;;;;5005709;28;20040;-73
2023/10/26 14:02:34;;;;;;;;;;;;;;;;;;5022853;28;20360;-71
2023/10/26 14:05:01;;;;;;;;;;;;;;;;;;5011589;28;19964;-71
2023/10/26 14:07:28;;;;;;;;;;;;;;;;;;5008997;28;20383;-69
2023/10/26 14:09:55;;;;;;;;;;;;;;;;;;5009237;28;20008;-68
2023/10/26 14:12:22;;;;;;;;;;;;;;;;;;5012402;28;19932;-69
2023/10/26 14:14:50;;;;;;;;;;;;;;;;;;5012457;28;19926;-69
2023/10/26 14:17:16;;;;;;;;;;;;;;;;;;5007055;28;19936;-69
2023/10/26 14:19:44;;;;;;;;;;;;;;;;;;5011846;28;19925;-69
2023/10/26 14:22:11;;;;;;;;;;;;;;;;;;5008784;28;19929;-68
2023/10/26 14:24:39;;;;;;;;;;;;;;;;;;5011211;28;20016;-69
2023/10/26 14:27:06;;;;;;;;;;;;;;;;;;5013415;28;20007;-69
2023/10/26 14:29:33;;;;;;;;;;;;;;;;;;5013182;28;20236;-68
2023/10/26 14:32:00;;;;;;;;;;;;;;;;;;5006778;28;19965;-70
2023/10/26 14:34:27;;;;;;;;;;;;;;;;;;5011445;28;20013;-72
2023/10/26 14:36:54;;;;;;;;;;;;;;;;;;5020639;28;19925;-74
2023/10/26 14:39:21;;;;;;;;;;;;;;;;;;5013420;28;19926;-72
2023/10/26 14:41:48;;;;;;;;;;;;;;;;;;5013437;28;20132;-72
2023/10/26 14:44:15;;;;;;;;;;;;;;;;;;4993432;28;20068;-73
2023/10/26 14:46:42;;;;;;;;;;;;;;;;;;5001706;28;20381;-72
2023/10/26 14:49:09;;;;;;;;;;;;;;;;;;5011631;28;20004;-72
2023/10/26 14:51:36;;;;;;;;;;;;;;;;;;5008488;28;20019;-72
2023/10/26 14:54:03;;;;;;;;;;;;;;;;;;5011416;28;19925;-72
2023/10/26 14:56:30;;;;;;;;;;;;;;;;;;5009490;28;19932;-72
2023/10/26 14:58:58;;;;;;;;;;;;;;;;;;5012625;28;20005;-72
2023/10/26 15:01:25;;;;;;;;;;;;;;;;;;5006489;28;19932;-71
2023/10/26 15:03:52;;;;;;;;;;;;;;;;;;5003862;28;20024;-71
2023/10/26 15:06:19;;;;;;;;;;;;;;;;;;5004490;28;19932;-72
2023/10/26 15:08:46;;;;;;;;;;;;;;;;;;5010546;28;20398;-72
2023/10/26 15:11:13;;;;;;;;;;;;;;;;;;5008078;28;19939;-72
2023/10/26 15:13:40;;;;;;;;;;;;;;;;;;5007390;28;19981;-73
2023/10/26 15:16:07;;;;;;;;;;;;;;;;;;5012618;28;19993;-72
2023/10/26 15:18:36;;;;;;;;;;;;;;;;;;5009191;28;19925;-74
2023/10/26 15:21:03;;;;;;;;;;;;;;;;;;5003557;28;19926;-70
2023/10/26 15:23:30;;;;;;;;;;;;;;;;;;5006428;28;20009;-70
2023/10/26 15:25:58;;;;;;;;;;;;;;;;;;5007038;28;19987;-70
2023/10/26 15:28:24;;;;;;;;;;;;;;;;;;5009618;28;20339;-71
2023/10/26 15:30:51;;;;;;;;;;;;;;;;;;5005743;28;20016;-71
2023/10/26 15:33:18;;;;;;;;;;;;;;;;;;5012026;28;20008;-71
2023/10/26 15:35:45;;;;;;;;;;;;;;;;;;5007598;28;19929;-71
2023/10/26 15:38:12;;;;;;;;;;;;;;;;;;5002670;28;19988;-72
2023/10/26 15:40:40;;;;;;;;;;;;;;;;;;5009971;28;24947;-72
2023/10/26 15:43:07;;;;;;;;;;;;;;;;;;5006604;28;19925;-72
2023/10/26 15:45:34;;;;;;;;;;;;;;;;;;5010349;28;19973;-71
2023/10/26 15:48:01;;;;;;;;;;;;;;;;;;5005918;28;20800;-71
2023/10/26 15:50:28;;;;;;;;;;;;;;;;;;5006424;28;19996;-72
2023/10/26 15:52:57;;;;;;;;;;;;;;;;;;5012222;28;19925;-72
2023/10/26 15:55:25;;;;;;;;;;;;;;;;;;5008388;28;19979;-71
2023/10/26 15:57:52;;;;;;;;;;;;;;;;;;5005420;28;19933;-75
2023/10/26 16:00:19;;;;;;;;;;;;;;;;;;5004380;28;19976;-73
2023/10/26 16:02:46;;;;;;;;;;;;;;;;;;5004404;28;19926;-72
2023/10/26 16:05:15;;;;;;;;;;;;;;;;;;5004930;28;19929;-72
2023/10/26 16:07:42;;;;;;;;;;;;;;;;;;5005683;28;19929;-72
2023/10/26 16:10:09;;;;;;;;;;;;;;;;;;5000269;28;20316;-73
2023/10/26 16:12:36;;;;;;;;;;;;;;;;;;5006378;28;19933;-74
2023/10/26 16:15:03;;;;;;;;;;;;;;;;;;5005812;28;19932;-74
2023/10/26 16:17:31;;;;;;;;;;;;;;;;;;5007259;28;20031;-74
2023/10/26 16:19:59;;;;;;;;;;;;;;;;;;5008850;28;20362;-74
2023/10/26 16:22:26;;;;;;;;;;;;;;;;;;5009694;28;20368;-73
2023/10/26 16:24:53;;;;;;;;;;;;;;;;;;5008840;28;20368;-72
2023/10/26 16:27:20;;;;;;;;;;;;;;;;;;5000044;28;19932;-73
2023/10/26 16:29:50;;;;;;;;;;;;;;;;;;5010477;28;20008;-70
2023/10/26 16:32:21;;;;;;;;;;;;;;;;;;5006229;28;20300;-70
2023/10/26 16:34:48;;;;;;;;;;;;;;;;;;5007003;28;19956;-69
2023/10/26 16:37:15;;;;;;;;;;;;;;;;;;5003463;28;20060;-70
2023/10/26 16:39:42;;;;;;;;;;;;;;;;;;5000217;28;20423;-69
2023/10/26 16:42:09;;;;;;;;;;;;;;;;;;5011359;28;19973;-69
2023/10/26 16:44:36;;;;;;;;;;;;;;;;;;5011118;28;20017;-69